sensor_id;sensor_type;location;lat;lon;timestamp;temperature;humidity
14236;DHT22;7202;50.718;7.072;2023-02-13T00:01:30;8.80;99.90
14236;DHT22;7202;50.718;7.072;2023-02-13T00:03:59;8.90;99.90
14236;DHT22;7202;50.718;7.072;2023-02-13T00:06:29;8.80;99.90
14236;DHT22;7202;50.718;7.072;2023-02-13T00:08:58;8.80;99.90
14236;DHT22;7202;50.718;7.072;2023-02-13T00:11:26;8.80;99.90
14236;DHT22;7202;50.718;7.072;2023-02-13T00:13:55;8.80;99.90
14236;DHT22;7202;50.718;7.072;2023-02-13T00:16:23;8.80;99.90
14236;DHT22;7202;50.718;7.072;2023-02-13T00:18:52;8.80;99.90
14236;DHT22;7202;50.718;7.072;2023-02-13T00:21:21;8.80;99.90
14236;DHT22;7202;50.718;7.072;2023-02-13T00:23:51;8.80;99.90
14236;DHT22;7202;50.718;7.072;2023-02-13T00:26:19;8.80;99.90
14236;DHT22;7202;50.718;7.072;2023-02-13T00:28:48;8.70;99.90
14236;DHT22;7202;50.718;7.072;2023-02-13T00:31:18;8.80;99.90
14236;DHT22;7202;50.718;7.072;2023-02-13T00:33:48;8.90;99.90
14236;DHT22;7202;50.718;7.072;2023-02-13T00:36:20;8.80;99.90
14236;DHT22;7202;50.718;7.072;2023-02-13T00:38:50;8.80;99.90
14236;DHT22;7202;50.718;7.072;2023-02-13T00:41:20;8.80;99.90
14236;DHT22;7202;50.718;7.072;2023-02-13T00:43:51;8.80;99.90
14236;DHT22;7202;50.718;7.072;2023-02-13T00:46:19;8.80;99.90
14236;DHT22;7202;50.718;7.072;2023-02-13T00:48:48;8.80;99.90
14236;DHT22;7202;50.718;7.072;2023-02-13T00:51:17;8.80;99.90
14236;DHT22;7202;50.718;7.072;2023-02-13T00:53:45;8.80;99.90
14236;DHT22;7202;50.718;7.072;2023-02-13T00:56:16;8.80;99.90
14236;DHT22;7202;50.718;7.072;2023-02-13T00:58:45;8.80;99.90
14236;DHT22;7202;50.718;7.072;2023-02-13T01:01:14;8.80;99.90
14236;DHT22;7202;50.718;7.072;2023-02-13T01:03:43;8.80;99.90
14236;DHT22;7202;50.718;7.072;2023-02-13T01:06:11;8.80;99.90
14236;DHT22;7202;50.718;7.072;2023-02-13T01:08:40;8.90;99.90
14236;DHT22;7202;50.718;7.072;2023-02-13T01:11:09;8.90;99.90
14236;DHT22;7202;50.718;7.072;2023-02-13T01:13:38;8.90;99.90
14236;DHT22;7202;50.718;7.072;2023-02-13T01:16:07;8.80;99.90
14236;DHT22;7202;50.718;7.072;2023-02-13T01:18:36;8.80;99.90
14236;DHT22;7202;50.718;7.072;2023-02-13T01:21:07;8.70;99.90
14236;DHT22;7202;50.718;7.072;2023-02-13T01:23:37;8.70;99.90
14236;DHT22;7202;50.718;7.072;2023-02-13T01:26:07;8.60;99.90
14236;DHT22;7202;50.718;7.072;2023-02-13T01:28:39;8.60;99.90
14236;DHT22;7202;50.718;7.072;2023-02-13T01:31:08;8.60;99.90
14236;DHT22;7202;50.718;7.072;2023-02-13T01:33:37;8.60;99.90
14236;DHT22;7202;50.718;7.072;2023-02-13T01:36:07;8.60;99.90
14236;DHT22;7202;50.718;7.072;2023-02-13T01:38:37;8.60;99.90
14236;DHT22;7202;50.718;7.072;2023-02-13T01:41:07;8.60;99.90
14236;DHT22;7202;50.718;7.072;2023-02-13T01:43:45;8.60;99.90
14236;DHT22;7202;50.718;7.072;2023-02-13T01:46:16;8.60;99.90
14236;DHT22;7202;50.718;7.072;2023-02-13T01:48:47;8.60;99.90
14236;DHT22;7202;50.718;7.072;2023-02-13T01:51:19;8.60;99.90
14236;DHT22;7202;50.718;7.072;2023-02-13T01:53:53;8.50;99.90
14236;DHT22;7202;50.718;7.072;2023-02-13T01:56:27;8.50;99.90
14236;DHT22;7202;50.718;7.072;2023-02-13T01:59:00;8.50;99.90
14236;DHT22;7202;50.718;7.072;2023-02-13T02:01:30;8.40;99.90
14236;DHT22;7202;50.718;7.072;2023-02-13T02:04:05;8.40;99.90
14236;DHT22;7202;50.718;7.072;2023-02-13T02:06:37;8.50;99.90
14236;DHT22;7202;50.718;7.072;2023-02-13T02:09:10;8.50;99.90
14236;DHT22;7202;50.718;7.072;2023-02-13T02:11:45;8.50;99.90
14236;DHT22;7202;50.718;7.072;2023-02-13T02:14:18;8.50;99.90
14236;DHT22;7202;50.718;7.072;2023-02-13T02:16:46;8.50;99.90
14236;DHT22;7202;50.718;7.072;2023-02-13T02:19:25;8.40;99.90
14236;DHT22;7202;50.718;7.072;2023-02-13T02:22:18;8.40;99.90
14236;DHT22;7202;50.718;7.072;2023-02-13T02:25:09;8.40;99.90
14236;DHT22;7202;50.718;7.072;2023-02-13T02:28:04;8.40;99.90
14236;DHT22;7202;50.718;7.072;2023-02-13T02:31:02;8.40;99.90
14236;DHT22;7202;50.718;7.072;2023-02-13T02:33:41;8.40;99.90
14236;DHT22;7202;50.718;7.072;2023-02-13T02:36:26;8.40;99.90
14236;DHT22;7202;50.718;7.072;2023-02-13T02:39:04;8.40;99.90
14236;DHT22;7202;50.718;7.072;2023-02-13T02:41:47;8.40;99.90
14236;DHT22;7202;50.718;7.072;2023-02-13T02:44:32;8.40;99.90
14236;DHT22;7202;50.718;7.072;2023-02-13T02:47:09;8.40;99.90
14236;DHT22;7202;50.718;7.072;2023-02-13T02:50:08;8.40;99.90
14236;DHT22;7202;50.718;7.072;2023-02-13T02:52:56;8.30;99.90
14236;DHT22;7202;50.718;7.072;2023-02-13T02:55:34;8.30;99.90
14236;DHT22;7202;50.718;7.072;2023-02-13T02:58:10;8.30;99.90
14236;DHT22;7202;50.718;7.072;2023-02-13T03:01:00;8.30;99.90
14236;DHT22;7202;50.718;7.072;2023-02-13T03:03:49;8.30;99.90
14236;DHT22;7202;50.718;7.072;2023-02-13T03:06:39;8.30;99.90
14236;DHT22;7202;50.718;7.072;2023-02-13T03:09:14;8.30;99.90
14236;DHT22;7202;50.718;7.072;2023-02-13T03:12:02;8.30;99.90
14236;DHT22;7202;50.718;7.072;2023-02-13T03:14:48;8.30;99.90
14236;DHT22;7202;50.718;7.072;2023-02-13T03:17:18;8.30;99.90
14236;DHT22;7202;50.718;7.072;2023-02-13T03:20:14;8.30;99.90
14236;DHT22;7202;50.718;7.072;2023-02-13T03:23:11;8.30;99.90
14236;DHT22;7202;50.718;7.072;2023-02-13T03:26:06;8.30;99.90
14236;DHT22;7202;50.718;7.072;2023-02-13T03:28:49;8.30;99.90
14236;DHT22;7202;50.718;7.072;2023-02-13T03:31:43;8.30;99.90
14236;DHT22;7202;50.718;7.072;2023-02-13T03:34:19;8.20;99.90
14236;DHT22;7202;50.718;7.072;2023-02-13T03:36:53;8.20;99.90
14236;DHT22;7202;50.718;7.072;2023-02-13T03:39:54;8.30;99.90
14236;DHT22;7202;50.718;7.072;2023-02-13T03:42:28;8.20;99.90
14236;DHT22;7202;50.718;7.072;2023-02-13T03:45:00;8.20;99.90
14236;DHT22;7202;50.718;7.072;2023-02-13T03:47:50;8.10;99.90
14236;DHT22;7202;50.718;7.072;2023-02-13T03:50:20;8.10;99.90
14236;DHT22;7202;50.718;7.072;2023-02-13T03:52:51;8.10;99.90
14236;DHT22;7202;50.718;7.072;2023-02-13T03:55:25;8.00;99.90
14236;DHT22;7202;50.718;7.072;2023-02-13T03:58:15;8.00;99.90
14236;DHT22;7202;50.718;7.072;2023-02-13T04:01:06;8.00;99.90
14236;DHT22;7202;50.718;7.072;2023-02-13T04:03:41;8.00;99.90
14236;DHT22;7202;50.718;7.072;2023-02-13T04:06:15;7.90;99.90
14236;DHT22;7202;50.718;7.072;2023-02-13T04:08:44;7.90;99.90
14236;DHT22;7202;50.718;7.072;2023-02-13T04:11:18;7.90;99.90
14236;DHT22;7202;50.718;7.072;2023-02-13T04:13:52;7.80;99.90
14236;DHT22;7202;50.718;7.072;2023-02-13T04:16:28;7.80;99.90
14236;DHT22;7202;50.718;7.072;2023-02-13T04:19:00;7.70;99.90
14236;DHT22;7202;50.718;7.072;2023-02-13T04:21:32;7.60;99.90
14236;DHT22;7202;50.718;7.072;2023-02-13T04:24:01;7.60;99.90
14236;DHT22;7202;50.718;7.072;2023-02-13T04:26:33;7.50;99.90
14236;DHT22;7202;50.718;7.072;2023-02-13T04:29:03;7.40;99.90
14236;DHT22;7202;50.718;7.072;2023-02-13T04:31:31;7.30;99.90
14236;DHT22;7202;50.718;7.072;2023-02-13T04:34:00;7.30;99.90
14236;DHT22;7202;50.718;7.072;2023-02-13T04:36:29;7.30;99.90
14236;DHT22;7202;50.718;7.072;2023-02-13T04:38:57;7.20;99.90
14236;DHT22;7202;50.718;7.072;2023-02-13T04:41:26;7.20;99.90
14236;DHT22;7202;50.718;7.072;2023-02-13T04:43:56;7.10;99.90
14236;DHT22;7202;50.718;7.072;2023-02-13T04:46:25;7.10;99.90
14236;DHT22;7202;50.718;7.072;2023-02-13T04:48:53;7.00;99.90
14236;DHT22;7202;50.718;7.072;2023-02-13T04:51:22;7.00;99.90
14236;DHT22;7202;50.718;7.072;2023-02-13T04:53:50;7.00;99.90
14236;DHT22;7202;50.718;7.072;2023-02-13T04:56:19;7.00;99.90
14236;DHT22;7202;50.718;7.072;2023-02-13T04:58:48;6.90;99.90
14236;DHT22;7202;50.718;7.072;2023-02-13T05:01:18;6.80;99.90
14236;DHT22;7202;50.718;7.072;2023-02-13T05:03:47;6.90;99.90
14236;DHT22;7202;50.718;7.072;2023-02-13T05:06:15;6.80;99.90
14236;DHT22;7202;50.718;7.072;2023-02-13T05:08:44;6.80;99.90
14236;DHT22;7202;50.718;7.072;2023-02-13T05:11:12;6.80;99.90
14236;DHT22;7202;50.718;7.072;2023-02-13T05:13:41;6.80;99.90
14236;DHT22;7202;50.718;7.072;2023-02-13T05:16:10;6.80;99.90
14236;DHT22;7202;50.718;7.072;2023-02-13T05:18:40;6.80;99.90
14236;DHT22;7202;50.718;7.072;2023-02-13T05:21:08;6.80;99.90
14236;DHT22;7202;50.718;7.072;2023-02-13T05:23:54;6.80;99.90
14236;DHT22;7202;50.718;7.072;2023-02-13T05:26:23;6.70;99.90
14236;DHT22;7202;50.718;7.072;2023-02-13T05:28:52;6.70;99.90
14236;DHT22;7202;50.718;7.072;2023-02-13T05:31:37;6.60;99.90
14236;DHT22;7202;50.718;7.072;2023-02-13T05:34:08;6.60;99.90
14236;DHT22;7202;50.718;7.072;2023-02-13T05:36:36;6.50;99.90
14236;DHT22;7202;50.718;7.072;2023-02-13T05:39:06;6.50;99.90
14236;DHT22;7202;50.718;7.072;2023-02-13T05:41:35;6.40;99.90
14236;DHT22;7202;50.718;7.072;2023-02-13T05:44:04;6.40;99.90
14236;DHT22;7202;50.718;7.072;2023-02-13T05:46:32;6.30;99.90
14236;DHT22;7202;50.718;7.072;2023-02-13T05:49:01;6.30;99.90
14236;DHT22;7202;50.718;7.072;2023-02-13T05:51:32;6.30;99.90
14236;DHT22;7202;50.718;7.072;2023-02-13T05:54:01;6.30;99.90
14236;DHT22;7202;50.718;7.072;2023-02-13T05:56:29;6.20;99.90
14236;DHT22;7202;50.718;7.072;2023-02-13T05:58:58;6.20;99.90
14236;DHT22;7202;50.718;7.072;2023-02-13T06:01:27;6.20;99.90
14236;DHT22;7202;50.718;7.072;2023-02-13T06:03:55;6.10;99.90
14236;DHT22;7202;50.718;7.072;2023-02-13T06:06:26;6.10;99.90
14236;DHT22;7202;50.718;7.072;2023-02-13T06:08:56;6.10;99.90
14236;DHT22;7202;50.718;7.072;2023-02-13T06:11:25;6.00;99.90
14236;DHT22;7202;50.718;7.072;2023-02-13T06:13:53;6.00;99.90
14236;DHT22;7202;50.718;7.072;2023-02-13T06:16:22;6.00;99.90
14236;DHT22;7202;50.718;7.072;2023-02-13T06:18:51;5.90;99.90
14236;DHT22;7202;50.718;7.072;2023-02-13T06:21:19;5.90;99.90
14236;DHT22;7202;50.718;7.072;2023-02-13T06:23:49;5.90;99.90
14236;DHT22;7202;50.718;7.072;2023-02-13T06:26:18;5.80;99.90
14236;DHT22;7202;50.718;7.072;2023-02-13T06:28:47;5.80;99.90
14236;DHT22;7202;50.718;7.072;2023-02-13T06:31:16;5.70;99.90
14236;DHT22;7202;50.718;7.072;2023-02-13T06:33:44;5.70;99.90
14236;DHT22;7202;50.718;7.072;2023-02-13T06:36:13;5.70;99.90
14236;DHT22;7202;50.718;7.072;2023-02-13T06:38:42;5.70;99.90
14236;DHT22;7202;50.718;7.072;2023-02-13T06:41:10;5.60;99.90
14236;DHT22;7202;50.718;7.072;2023-02-13T06:43:40;5.60;99.90
14236;DHT22;7202;50.718;7.072;2023-02-13T06:46:09;5.50;99.90
14236;DHT22;7202;50.718;7.072;2023-02-13T06:48:38;5.50;99.90
14236;DHT22;7202;50.718;7.072;2023-02-13T06:51:06;5.60;99.90
14236;DHT22;7202;50.718;7.072;2023-02-13T06:53:35;5.50;99.90
14236;DHT22;7202;50.718;7.072;2023-02-13T06:56:04;5.50;99.90
14236;DHT22;7202;50.718;7.072;2023-02-13T06:58:33;5.50;99.90
14236;DHT22;7202;50.718;7.072;2023-02-13T07:01:03;5.60;99.90
14236;DHT22;7202;50.718;7.072;2023-02-13T07:03:32;5.60;99.90
14236;DHT22;7202;50.718;7.072;2023-02-13T07:06:01;5.50;99.90
14236;DHT22;7202;50.718;7.072;2023-02-13T07:08:29;5.70;99.90
14236;DHT22;7202;50.718;7.072;2023-02-13T07:10:58;5.60;99.90
14236;DHT22;7202;50.718;7.072;2023-02-13T07:13:27;5.60;99.90
14236;DHT22;7202;50.718;7.072;2023-02-13T07:15:59;5.60;99.90
14236;DHT22;7202;50.718;7.072;2023-02-13T07:18:29;5.60;99.90
14236;DHT22;7202;50.718;7.072;2023-02-13T07:20:58;5.50;99.90
14236;DHT22;7202;50.718;7.072;2023-02-13T07:23:27;5.50;99.90
14236;DHT22;7202;50.718;7.072;2023-02-13T07:25:58;5.50;99.90
14236;DHT22;7202;50.718;7.072;2023-02-13T07:28:27;5.60;99.90
14236;DHT22;7202;50.718;7.072;2023-02-13T07:30:56;5.60;99.90
14236;DHT22;7202;50.718;7.072;2023-02-13T07:33:25;5.60;99.90
14236;DHT22;7202;50.718;7.072;2023-02-13T07:35:55;5.70;99.90
14236;DHT22;7202;50.718;7.072;2023-02-13T07:38:24;5.60;99.90
14236;DHT22;7202;50.718;7.072;2023-02-13T07:40:53;5.60;99.90
14236;DHT22;7202;50.718;7.072;2023-02-13T07:43:22;5.60;99.90
14236;DHT22;7202;50.718;7.072;2023-02-13T07:45:51;5.70;99.90
14236;DHT22;7202;50.718;7.072;2023-02-13T07:48:22;5.70;99.90
14236;DHT22;7202;50.718;7.072;2023-02-13T07:50:51;5.80;99.90
14236;DHT22;7202;50.718;7.072;2023-02-13T07:53:21;5.90;99.90
14236;DHT22;7202;50.718;7.072;2023-02-13T07:55:50;5.90;99.90
14236;DHT22;7202;50.718;7.072;2023-02-13T07:58:18;6.00;99.90
14236;DHT22;7202;50.718;7.072;2023-02-13T08:00:47;6.10;99.90
14236;DHT22;7202;50.718;7.072;2023-02-13T08:03:16;6.10;99.90
14236;DHT22;7202;50.718;7.072;2023-02-13T08:05:46;6.10;99.90
14236;DHT22;7202;50.718;7.072;2023-02-13T08:08:16;6.10;99.90
14236;DHT22;7202;50.718;7.072;2023-02-13T08:10:45;6.20;99.90
14236;DHT22;7202;50.718;7.072;2023-02-13T08:13:31;6.30;99.90
14236;DHT22;7202;50.718;7.072;2023-02-13T08:16:00;6.30;99.90
14236;DHT22;7202;50.718;7.072;2023-02-13T08:18:29;6.40;99.90
14236;DHT22;7202;50.718;7.072;2023-02-13T08:20:57;6.50;99.90
14236;DHT22;7202;50.718;7.072;2023-02-13T08:23:26;6.60;99.90
14236;DHT22;7202;50.718;7.072;2023-02-13T08:25:58;6.60;99.90
14236;DHT22;7202;50.718;7.072;2023-02-13T08:28:32;6.60;99.90
14236;DHT22;7202;50.718;7.072;2023-02-13T08:31:01;6.70;99.90
14236;DHT22;7202;50.718;7.072;2023-02-13T08:33:30;6.80;99.90
14236;DHT22;7202;50.718;7.072;2023-02-13T08:36:01;6.90;99.90
14236;DHT22;7202;50.718;7.072;2023-02-13T08:38:29;6.90;99.90
14236;DHT22;7202;50.718;7.072;2023-02-13T08:40:59;7.00;99.90
14236;DHT22;7202;50.718;7.072;2023-02-13T08:43:28;7.00;99.90
14236;DHT22;7202;50.718;7.072;2023-02-13T08:45:57;7.10;99.90
14236;DHT22;7202;50.718;7.072;2023-02-13T08:48:27;7.20;99.90
14236;DHT22;7202;50.718;7.072;2023-02-13T08:50:57;7.30;99.90
14236;DHT22;7202;50.718;7.072;2023-02-13T08:53:25;7.30;99.90
14236;DHT22;7202;50.718;7.072;2023-02-13T08:55:55;7.30;99.90
14236;DHT22;7202;50.718;7.072;2023-02-13T08:58:25;7.40;99.90
14236;DHT22;7202;50.718;7.072;2023-02-13T09:00:54;7.40;99.90
14236;DHT22;7202;50.718;7.072;2023-02-13T09:03:23;7.50;99.90
14236;DHT22;7202;50.718;7.072;2023-02-13T09:05:52;7.60;99.90
14236;DHT22;7202;50.718;7.072;2023-02-13T09:08:20;7.70;99.90
14236;DHT22;7202;50.718;7.072;2023-02-13T09:10:55;7.70;99.90
14236;DHT22;7202;50.718;7.072;2023-02-13T09:13:25;7.80;99.90
14236;DHT22;7202;50.718;7.072;2023-02-13T09:15:57;7.90;99.90
14236;DHT22;7202;50.718;7.072;2023-02-13T09:18:26;8.00;99.90
14236;DHT22;7202;50.718;7.072;2023-02-13T09:20:59;8.10;99.90
14236;DHT22;7202;50.718;7.072;2023-02-13T09:23:35;8.20;99.90
14236;DHT22;7202;50.718;7.072;2023-02-13T09:26:05;8.20;99.90
14236;DHT22;7202;50.718;7.072;2023-02-13T09:28:36;8.30;99.90
14236;DHT22;7202;50.718;7.072;2023-02-13T09:31:06;8.40;99.90
14236;DHT22;7202;50.718;7.072;2023-02-13T09:33:35;8.40;99.90
14236;DHT22;7202;50.718;7.072;2023-02-13T09:36:04;8.40;99.90
14236;DHT22;7202;50.718;7.072;2023-02-13T09:38:34;8.50;99.90
14236;DHT22;7202;50.718;7.072;2023-02-13T09:41:06;8.60;99.90
14236;DHT22;7202;50.718;7.072;2023-02-13T09:43:41;8.60;99.90
14236;DHT22;7202;50.718;7.072;2023-02-13T09:46:14;8.70;99.90
14236;DHT22;7202;50.718;7.072;2023-02-13T09:48:47;8.80;99.90
14236;DHT22;7202;50.718;7.072;2023-02-13T09:51:19;8.80;99.90
14236;DHT22;7202;50.718;7.072;2023-02-13T09:53:52;8.90;99.90
14236;DHT22;7202;50.718;7.072;2023-02-13T09:59:32;9.10;99.90
14236;DHT22;7202;50.718;7.072;2023-02-13T10:02:16;9.20;99.90
14236;DHT22;7202;50.718;7.072;2023-02-13T10:04:54;9.30;99.90
14236;DHT22;7202;50.718;7.072;2023-02-13T10:07:30;9.30;99.90
14236;DHT22;7202;50.718;7.072;2023-02-13T10:10:07;9.40;99.90
14236;DHT22;7202;50.718;7.072;2023-02-13T10:12:52;9.50;99.90
14236;DHT22;7202;50.718;7.072;2023-02-13T10:15:30;9.60;99.90
14236;DHT22;7202;50.718;7.072;2023-02-13T10:18:03;9.60;99.90
14236;DHT22;7202;50.718;7.072;2023-02-13T10:20:36;9.70;99.90
14236;DHT22;7202;50.718;7.072;2023-02-13T10:23:16;9.80;99.90
14236;DHT22;7202;50.718;7.072;2023-02-13T10:25:49;9.80;99.90
14236;DHT22;7202;50.718;7.072;2023-02-13T10:28:29;9.90;99.90
14236;DHT22;7202;50.718;7.072;2023-02-13T10:31:04;10.00;99.90
14236;DHT22;7202;50.718;7.072;2023-02-13T10:33:40;10.10;99.90
14236;DHT22;7202;50.718;7.072;2023-02-13T10:36:15;10.10;99.90
14236;DHT22;7202;50.718;7.072;2023-02-13T10:38:54;10.20;99.90
14236;DHT22;7202;50.718;7.072;2023-02-13T10:41:26;10.30;99.90
14236;DHT22;7202;50.718;7.072;2023-02-13T10:44:15;10.30;99.90
14236;DHT22;7202;50.718;7.072;2023-02-13T10:46:57;10.40;99.90
14236;DHT22;7202;50.718;7.072;2023-02-13T10:49:43;10.50;99.90
14236;DHT22;7202;50.718;7.072;2023-02-13T10:52:21;10.60;99.90
14236;DHT22;7202;50.718;7.072;2023-02-13T10:55:01;10.70;99.90
14236;DHT22;7202;50.718;7.072;2023-02-13T10:57:50;10.70;99.90
14236;DHT22;7202;50.718;7.072;2023-02-13T11:00:24;10.70;99.90
14236;DHT22;7202;50.718;7.072;2023-02-13T11:02:58;10.80;99.90
14236;DHT22;7202;50.718;7.072;2023-02-13T11:05:30;10.90;99.90
14236;DHT22;7202;50.718;7.072;2023-02-13T11:07:59;10.90;99.90
14236;DHT22;7202;50.718;7.072;2023-02-13T11:10:28;10.90;99.90
14236;DHT22;7202;50.718;7.072;2023-02-13T11:13:15;11.00;99.90
14236;DHT22;7202;50.718;7.072;2023-02-13T11:15:56;11.00;99.90
14236;DHT22;7202;50.718;7.072;2023-02-13T11:18:29;11.10;99.90
14236;DHT22;7202;50.718;7.072;2023-02-13T11:21:04;11.10;99.90
14236;DHT22;7202;50.718;7.072;2023-02-13T11:23:42;11.20;99.90
14236;DHT22;7202;50.718;7.072;2023-02-13T11:26:14;11.30;99.90
14236;DHT22;7202;50.718;7.072;2023-02-13T11:28:50;11.30;99.90
14236;DHT22;7202;50.718;7.072;2023-02-13T11:31:25;11.40;99.90
14236;DHT22;7202;50.718;7.072;2023-02-13T11:33:56;11.50;99.90
14236;DHT22;7202;50.718;7.072;2023-02-13T11:36:28;11.60;99.90
14236;DHT22;7202;50.718;7.072;2023-02-13T11:38:58;11.60;99.90
14236;DHT22;7202;50.718;7.072;2023-02-13T11:41:28;11.70;99.90
14236;DHT22;7202;50.718;7.072;2023-02-13T11:43:59;11.70;99.90
14236;DHT22;7202;50.718;7.072;2023-02-13T11:46:29;11.70;99.90
14236;DHT22;7202;50.718;7.072;2023-02-13T11:49:16;11.80;99.90
14236;DHT22;7202;50.718;7.072;2023-02-13T11:51:48;11.90;99.90
14236;DHT22;7202;50.718;7.072;2023-02-13T11:54:23;11.90;99.90
14236;DHT22;7202;50.718;7.072;2023-02-13T11:56:54;12.00;99.90
14236;DHT22;7202;50.718;7.072;2023-02-13T11:59:40;12.00;99.90
14236;DHT22;7202;50.718;7.072;2023-02-13T12:02:13;12.10;99.90
14236;DHT22;7202;50.718;7.072;2023-02-13T12:04:44;12.20;99.90
14236;DHT22;7202;50.718;7.072;2023-02-13T12:07:16;12.20;99.90
14236;DHT22;7202;50.718;7.072;2023-02-13T12:09:49;12.20;99.90
14236;DHT22;7202;50.718;7.072;2023-02-13T12:12:24;12.20;99.90
14236;DHT22;7202;50.718;7.072;2023-02-13T12:14:55;12.30;99.90
14236;DHT22;7202;50.718;7.072;2023-02-13T12:17:26;12.30;99.90
14236;DHT22;7202;50.718;7.072;2023-02-13T12:20:00;12.40;99.90
14236;DHT22;7202;50.718;7.072;2023-02-13T12:22:31;12.40;99.90
14236;DHT22;7202;50.718;7.072;2023-02-13T12:25:33;12.40;99.90
14236;DHT22;7202;50.718;7.072;2023-02-13T12:28:16;12.40;99.90
14236;DHT22;7202;50.718;7.072;2023-02-13T12:30:58;12.50;99.90
14236;DHT22;7202;50.718;7.072;2023-02-13T12:36:35;12.60;99.90
14236;DHT22;7202;50.718;7.072;2023-02-13T12:39:17;12.60;99.90
14236;DHT22;7202;50.718;7.072;2023-02-13T12:42:01;12.70;99.90
14236;DHT22;7202;50.718;7.072;2023-02-13T12:44:56;12.70;99.90
14236;DHT22;7202;50.718;7.072;2023-02-13T12:47:32;12.80;99.90
14236;DHT22;7202;50.718;7.072;2023-02-13T12:50:27;12.90;99.90
14236;DHT22;7202;50.718;7.072;2023-02-13T12:53:19;12.90;99.90
14236;DHT22;7202;50.718;7.072;2023-02-13T12:56:05;12.90;99.90
14236;DHT22;7202;50.718;7.072;2023-02-13T12:58:56;13.00;99.90
14236;DHT22;7202;50.718;7.072;2023-02-13T13:04:47;13.00;99.90
14236;DHT22;7202;50.718;7.072;2023-02-13T13:07:42;13.10;99.90
14236;DHT22;7202;50.718;7.072;2023-02-13T13:10:28;13.00;99.90
14236;DHT22;7202;50.718;7.072;2023-02-13T13:13:09;13.10;99.90
14236;DHT22;7202;50.718;7.072;2023-02-13T13:15:46;13.10;99.90
14236;DHT22;7202;50.718;7.072;2023-02-13T13:18:29;13.10;99.90
14236;DHT22;7202;50.718;7.072;2023-02-13T13:21:12;13.10;99.90
14236;DHT22;7202;50.718;7.072;2023-02-13T13:23:50;13.10;99.90
14236;DHT22;7202;50.718;7.072;2023-02-13T13:26:30;13.10;99.90
14236;DHT22;7202;50.718;7.072;2023-02-13T13:29:05;13.00;99.90
14236;DHT22;7202;50.718;7.072;2023-02-13T13:31:37;13.00;99.90
14236;DHT22;7202;50.718;7.072;2023-02-13T13:34:09;13.10;99.90
14236;DHT22;7202;50.718;7.072;2023-02-13T13:36:45;13.10;99.90
14236;DHT22;7202;50.718;7.072;2023-02-13T13:39:27;13.10;99.90
14236;DHT22;7202;50.718;7.072;2023-02-13T13:42:05;13.20;99.90
14236;DHT22;7202;50.718;7.072;2023-02-13T13:45:00;13.20;99.90
14236;DHT22;7202;50.718;7.072;2023-02-13T13:47:49;13.20;99.90
14236;DHT22;7202;50.718;7.072;2023-02-13T13:50:22;13.20;99.90
14236;DHT22;7202;50.718;7.072;2023-02-13T13:53:09;13.20;99.90
14236;DHT22;7202;50.718;7.072;2023-02-13T13:55:58;13.30;99.90
14236;DHT22;7202;50.718;7.072;2023-02-13T13:58:35;13.20;99.90
14236;DHT22;7202;50.718;7.072;2023-02-13T14:01:29;13.20;99.90
14236;DHT22;7202;50.718;7.072;2023-02-13T14:04:00;13.30;99.90
14236;DHT22;7202;50.718;7.072;2023-02-13T14:09:39;13.20;99.90
14236;DHT22;7202;50.718;7.072;2023-02-13T14:12:36;13.30;99.90
14236;DHT22;7202;50.718;7.072;2023-02-13T14:15:48;13.30;99.90
14236;DHT22;7202;50.718;7.072;2023-02-13T14:18:20;13.30;99.90
14236;DHT22;7202;50.718;7.072;2023-02-13T14:20:50;13.20;99.90
14236;DHT22;7202;50.718;7.072;2023-02-13T14:23:31;13.20;99.90
14236;DHT22;7202;50.718;7.072;2023-02-13T14:26:24;13.20;99.90
14236;DHT22;7202;50.718;7.072;2023-02-13T14:28:57;13.10;99.90
14236;DHT22;7202;50.718;7.072;2023-02-13T14:31:30;13.10;99.90
14236;DHT22;7202;50.718;7.072;2023-02-13T14:34:01;13.10;99.90
14236;DHT22;7202;50.718;7.072;2023-02-13T14:36:31;13.00;99.90
14236;DHT22;7202;50.718;7.072;2023-02-13T14:39:03;13.00;99.90
14236;DHT22;7202;50.718;7.072;2023-02-13T14:41:43;13.00;99.90
14236;DHT22;7202;50.718;7.072;2023-02-13T14:44:17;13.00;99.90
14236;DHT22;7202;50.718;7.072;2023-02-13T14:46:49;13.00;99.90
14236;DHT22;7202;50.718;7.072;2023-02-13T14:49:19;13.00;99.90
14236;DHT22;7202;50.718;7.072;2023-02-13T14:51:52;13.00;99.90
14236;DHT22;7202;50.718;7.072;2023-02-13T14:54:26;13.00;99.90
14236;DHT22;7202;50.718;7.072;2023-02-13T14:57:03;13.00;99.90
14236;DHT22;7202;50.718;7.072;2023-02-13T14:59:35;13.00;99.90
14236;DHT22;7202;50.718;7.072;2023-02-13T15:02:16;13.00;99.90
14236;DHT22;7202;50.718;7.072;2023-02-13T15:04:50;12.90;99.90
14236;DHT22;7202;50.718;7.072;2023-02-13T15:07:23;12.90;99.90
14236;DHT22;7202;50.718;7.072;2023-02-13T15:09:57;12.90;99.90
14236;DHT22;7202;50.718;7.072;2023-02-13T15:12:29;12.80;99.90
14236;DHT22;7202;50.718;7.072;2023-02-13T15:14:58;12.90;99.90
14236;DHT22;7202;50.718;7.072;2023-02-13T15:17:32;12.80;99.90
14236;DHT22;7202;50.718;7.072;2023-02-13T15:20:13;12.80;99.90
14236;DHT22;7202;50.718;7.072;2023-02-13T15:22:46;12.80;99.90
14236;DHT22;7202;50.718;7.072;2023-02-13T15:25:22;12.70;99.90
14236;DHT22;7202;50.718;7.072;2023-02-13T15:27:53;12.70;99.90
14236;DHT22;7202;50.718;7.072;2023-02-13T15:30:24;12.60;99.90
14236;DHT22;7202;50.718;7.072;2023-02-13T15:32:56;12.60;99.90
14236;DHT22;7202;50.718;7.072;2023-02-13T15:35:27;12.60;99.90
14236;DHT22;7202;50.718;7.072;2023-02-13T15:37:57;12.50;99.90
14236;DHT22;7202;50.718;7.072;2023-02-13T15:40:28;12.50;99.90
14236;DHT22;7202;50.718;7.072;2023-02-13T15:42:57;12.50;99.90
14236;DHT22;7202;50.718;7.072;2023-02-13T15:45:28;12.40;99.90
14236;DHT22;7202;50.718;7.072;2023-02-13T15:47:59;12.40;99.90
14236;DHT22;7202;50.718;7.072;2023-02-13T15:50:30;12.30;99.90
14236;DHT22;7202;50.718;7.072;2023-02-13T15:53:00;12.20;99.90
14236;DHT22;7202;50.718;7.072;2023-02-13T15:55:32;12.20;99.90
14236;DHT22;7202;50.718;7.072;2023-02-13T15:58:03;12.20;99.90
14236;DHT22;7202;50.718;7.072;2023-02-13T16:00:34;12.10;99.90
14236;DHT22;7202;50.718;7.072;2023-02-13T16:03:06;12.10;99.90
14236;DHT22;7202;50.718;7.072;2023-02-13T16:05:37;12.00;99.90
14236;DHT22;7202;50.718;7.072;2023-02-13T16:08:29;12.00;99.90
14236;DHT22;7202;50.718;7.072;2023-02-13T16:11:24;11.90;99.90
14236;DHT22;7202;50.718;7.072;2023-02-13T16:14:03;11.80;99.90
14236;DHT22;7202;50.718;7.072;2023-02-13T16:16:35;11.80;99.90
14236;DHT22;7202;50.718;7.072;2023-02-13T16:19:27;11.80;99.90
14236;DHT22;7202;50.718;7.072;2023-02-13T16:21:59;11.70;99.90
14236;DHT22;7202;50.718;7.072;2023-02-13T16:24:29;11.70;99.90
14236;DHT22;7202;50.718;7.072;2023-02-13T16:26:58;11.60;99.90
14236;DHT22;7202;50.718;7.072;2023-02-13T16:29:26;11.50;99.90
14236;DHT22;7202;50.718;7.072;2023-02-13T16:32:04;11.40;99.90
14236;DHT22;7202;50.718;7.072;2023-02-13T16:34:38;11.40;99.90
14236;DHT22;7202;50.718;7.072;2023-02-13T16:37:29;11.40;99.90
14236;DHT22;7202;50.718;7.072;2023-02-13T16:40:30;11.30;99.90
14236;DHT22;7202;50.718;7.072;2023-02-13T16:43:34;11.20;99.90
14236;DHT22;7202;50.718;7.072;2023-02-13T16:46:11;11.10;99.90
14236;DHT22;7202;50.718;7.072;2023-02-13T16:48:41;11.10;99.90
14236;DHT22;7202;50.718;7.072;2023-02-13T16:51:12;11.00;99.90
14236;DHT22;7202;50.718;7.072;2023-02-13T16:53:40;11.00;99.90